Hs Rome — D5DR4 — position and weather

sailwx.info

Track history (hours):
 
Tides and Currents Weather Stations Pressure Air Temp Water Temp Dewpoint Dewpoint Depression Visibility Wind Speed Wind Dir Waves Ship Positions

Hs Rome

Last reported at 2017-Nov-23 13:03 UTC. Time now 2018-May-21 14:34 UTC.
Position N 49°28' E 000°10'.
Warning: this ship's position is months out of date.

Length 300 m; draft 11.2 m.

Type: Ship (hazmat cat A). MMSI: 636092485.

Date/timePositionNaut miles runAvg speedWind from/ knotsBaromVisibWave heightAir tempDewpointWater temp
2017-Nov-23 13:03N 49°28' E 000°10'0 0.1
2017-Nov-23 13:00N 49°28' E 000°10'0 0.0
2017-Nov-23 12:30N 49°28' E 000°10'0 0.0
2017-Nov-23 12:00N 49°28' E 000°10'0 0.0
2017-Nov-23 11:30N 49°28' E 000°10'0 0.0
2017-Nov-23 11:00N 49°28' E 000°10'0 0.0
2017-Nov-23 10:30N 49°28' E 000°10'0 0.0
2017-Nov-23 10:00N 49°28' E 000°10'0 0.0
2017-Nov-23 09:30N 49°28' E 000°10'0 0.0
2017-Nov-23 09:00N 49°28' E 000°10'0 0.0
2017-Nov-23 08:31N 49°28' E 000°10'0 0.7
2017-Nov-23 08:01N 49°28' E 000°09'4 8.5
2017-Nov-23 07:31N 49°30' E 000°03'612.8
2017-Nov-23 07:00N 49°31' W 000°06'3 5.3
2017-Nov-23 06:30N 49°32' W 000°10'5 9.8
2017-Nov-23 06:00N 49°34' W 000°17'510.3
2017-Nov-23 05:30N 49°36' W 000°24'510.3
2017-Nov-23 05:00N 49°38' W 000°32'510.5
2017-Nov-23 04:30N 49°40' W 000°39'510.4
2017-Nov-23 04:00N 49°43' W 000°46'510.6
2017-Nov-23 03:30N 49°45' W 000°54'510.3
2017-Nov-23 03:01N 49°47' W 001°01'510.4
2017-Nov-23 02:31N 49°49' W 001°08'510.2
2017-Nov-23 02:01N 49°51' W 001°16'510.3
2017-Nov-23 01:30N 49°53' W 001°23'510.5
2017-Nov-23 01:01N 49°53' W 001°31'611.5
2017-Nov-23 00:31N 49°53' W 001°40'612.7
2017-Nov-23 00:01N 49°53' W 001°50'713.3
2017-Nov-22 23:31N 49°53' W 002°00'714.1
2017-Nov-22 23:00N 49°53' W 002°11'714.5
2017-Nov-22 22:30N 49°52' W 002°23'713.8
2017-Nov-22 22:00N 49°52' W 002°33'713.7
2017-Nov-22 21:30N 49°50' W 002°44'713.4
2017-Nov-22 21:01N 49°49' W 002°54'713.2
2017-Nov-22 20:30N 49°48' W 003°04'613.1
2017-Nov-22 20:01N 49°47' W 003°14'1112.9
2017-Nov-22 19:11N 49°46' W 003°31'  
Track history (hours):
 
Tides and Currents Weather Stations Pressure Air Temp Water Temp Dewpoint Dewpoint Depression Visibility Wind Speed Wind Dir Waves Ship Positions

Hs Rome

Last reported at 2017-Nov-23 13:03 UTC. Time now 2018-May-21 14:34 UTC.
Position N 49°28' E 000°10'.
Warning: this ship's position is months out of date.

Length 300 m; draft 11.2 m.

Type: Ship (hazmat cat A). MMSI: 636092485.

Date/timePositionNaut miles runAvg speedWind from/ knotsBaromVisibWave heightAir tempDewpointWater temp
2017-Nov-23 13:03N 49°28' E 000°10'0 0.1
2017-Nov-23 13:00N 49°28' E 000°10'0 0.0
2017-Nov-23 12:30N 49°28' E 000°10'0 0.0
2017-Nov-23 12:00N 49°28' E 000°10'0 0.0
2017-Nov-23 11:30N 49°28' E 000°10'0 0.0
2017-Nov-23 11:00N 49°28' E 000°10'0 0.0
2017-Nov-23 10:30N 49°28' E 000°10'0 0.0
2017-Nov-23 10:00N 49°28' E 000°10'0 0.0
2017-Nov-23 09:30N 49°28' E 000°10'0 0.0
2017-Nov-23 09:00N 49°28' E 000°10'0 0.0
2017-Nov-23 08:31N 49°28' E 000°10'0 0.7
2017-Nov-23 08:01N 49°28' E 000°09'4 8.5
2017-Nov-23 07:31N 49°30' E 000°03'612.8
2017-Nov-23 07:00N 49°31' W 000°06'3 5.3
2017-Nov-23 06:30N 49°32' W 000°10'5 9.8
2017-Nov-23 06:00N 49°34' W 000°17'510.3
2017-Nov-23 05:30N 49°36' W 000°24'510.3
2017-Nov-23 05:00N 49°38' W 000°32'510.5
2017-Nov-23 04:30N 49°40' W 000°39'510.4
2017-Nov-23 04:00N 49°43' W 000°46'510.6
2017-Nov-23 03:30N 49°45' W 000°54'510.3
2017-Nov-23 03:01N 49°47' W 001°01'510.4
2017-Nov-23 02:31N 49°49' W 001°08'510.2
2017-Nov-23 02:01N 49°51' W 001°16'510.3
2017-Nov-23 01:30N 49°53' W 001°23'510.5
2017-Nov-23 01:01N 49°53' W 001°31'611.5
2017-Nov-23 00:31N 49°53' W 001°40'612.7
2017-Nov-23 00:01N 49°53' W 001°50'713.3
2017-Nov-22 23:31N 49°53' W 002°00'714.1
2017-Nov-22 23:00N 49°53' W 002°11'714.5
2017-Nov-22 22:30N 49°52' W 002°23'713.8
2017-Nov-22 22:00N 49°52' W 002°33'713.7
2017-Nov-22 21:30N 49°50' W 002°44'713.4
2017-Nov-22 21:01N 49°49' W 002°54'713.2
2017-Nov-22 20:30N 49°48' W 003°04'613.1
2017-Nov-22 20:01N 49°47' W 003°14'1112.9
2017-Nov-22 19:11N 49°46' W 003°31'  

Dump ship's entire track history